sensor_id;sensor_type;location;lat;lon;timestamp;temperature;humidity
64226;DHT22;50545;56.064;26.178;2023-06-19T00:00:08;17.90;97.70
64226;DHT22;50545;56.064;26.178;2023-06-19T00:02:43;17.90;97.70
64226;DHT22;50545;56.064;26.178;2023-06-19T00:05:12;17.90;97.70
64226;DHT22;50545;56.064;26.178;2023-06-19T00:07:39;17.90;97.80
64226;DHT22;50545;56.064;26.178;2023-06-19T00:10:07;17.90;97.80
64226;DHT22;50545;56.064;26.178;2023-06-19T00:12:34;17.90;97.70
64226;DHT22;50545;56.064;26.178;2023-06-19T00:15:02;17.90;97.70
64226;DHT22;50545;56.064;26.178;2023-06-19T00:17:30;17.90;97.80
64226;DHT22;50545;56.064;26.178;2023-06-19T00:19:57;17.90;98.00
64226;DHT22;50545;56.064;26.178;2023-06-19T00:22:25;17.90;98.20
64226;DHT22;50545;56.064;26.178;2023-06-19T00:24:53;17.90;98.20
64226;DHT22;50545;56.064;26.178;2023-06-19T00:27:20;17.90;98.20
64226;DHT22;50545;56.064;26.178;2023-06-19T00:29:47;17.90;98.30
64226;DHT22;50545;56.064;26.178;2023-06-19T00:32:15;17.90;98.30
64226;DHT22;50545;56.064;26.178;2023-06-19T00:34:42;18.00;98.30
64226;DHT22;50545;56.064;26.178;2023-06-19T00:37:12;18.00;98.20
64226;DHT22;50545;56.064;26.178;2023-06-19T00:39:42;17.90;98.30
64226;DHT22;50545;56.064;26.178;2023-06-19T00:42:10;17.90;98.20
64226;DHT22;50545;56.064;26.178;2023-06-19T00:44:38;18.00;98.10
64226;DHT22;50545;56.064;26.178;2023-06-19T00:47:06;18.00;98.10
64226;DHT22;50545;56.064;26.178;2023-06-19T00:49:33;18.00;97.90
64226;DHT22;50545;56.064;26.178;2023-06-19T00:52:01;17.90;97.70
64226;DHT22;50545;56.064;26.178;2023-06-19T00:54:30;17.90;97.80
64226;DHT22;50545;56.064;26.178;2023-06-19T00:56:59;17.90;97.80
64226;DHT22;50545;56.064;26.178;2023-06-19T00:59:26;17.90;97.90
64226;DHT22;50545;56.064;26.178;2023-06-19T01:01:53;17.80;97.90
64226;DHT22;50545;56.064;26.178;2023-06-19T01:04:21;17.80;98.00
64226;DHT22;50545;56.064;26.178;2023-06-19T01:06:55;17.70;98.00
64226;DHT22;50545;56.064;26.178;2023-06-19T01:09:33;17.70;98.20
64226;DHT22;50545;56.064;26.178;2023-06-19T01:12:10;17.60;98.40
64226;DHT22;50545;56.064;26.178;2023-06-19T01:15:07;17.60;98.50
64226;DHT22;50545;56.064;26.178;2023-06-19T01:17:35;17.60;98.70
64226;DHT22;50545;56.064;26.178;2023-06-19T01:20:04;17.60;98.70
64226;DHT22;50545;56.064;26.178;2023-06-19T01:22:38;17.70;98.60
64226;DHT22;50545;56.064;26.178;2023-06-19T01:25:06;17.70;98.60
64226;DHT22;50545;56.064;26.178;2023-06-19T01:27:33;17.70;98.60
64226;DHT22;50545;56.064;26.178;2023-06-19T01:30:02;17.70;98.50
64226;DHT22;50545;56.064;26.178;2023-06-19T01:32:56;17.70;98.50
64226;DHT22;50545;56.064;26.178;2023-06-19T01:35:28;17.70;98.70
64226;DHT22;50545;56.064;26.178;2023-06-19T01:37:56;17.70;98.80
64226;DHT22;50545;56.064;26.178;2023-06-19T01:40:27;17.70;98.80
64226;DHT22;50545;56.064;26.178;2023-06-19T01:42:59;17.80;98.70
64226;DHT22;50545;56.064;26.178;2023-06-19T01:45:28;17.80;98.60
64226;DHT22;50545;56.064;26.178;2023-06-19T01:47:57;17.80;98.70
64226;DHT22;50545;56.064;26.178;2023-06-19T01:50:24;17.80;98.50
64226;DHT22;50545;56.064;26.178;2023-06-19T01:52:52;17.80;98.70
64226;DHT22;50545;56.064;26.178;2023-06-19T01:55:20;17.80;98.30
64226;DHT22;50545;56.064;26.178;2023-06-19T01:57:47;17.80;98.40
64226;DHT22;50545;56.064;26.178;2023-06-19T02:00:15;17.80;98.30
64226;DHT22;50545;56.064;26.178;2023-06-19T02:02:42;17.80;98.30
64226;DHT22;50545;56.064;26.178;2023-06-19T02:05:09;17.80;98.20
64226;DHT22;50545;56.064;26.178;2023-06-19T02:07:37;17.80;98.20
64226;DHT22;50545;56.064;26.178;2023-06-19T02:10:05;17.80;98.20
64226;DHT22;50545;56.064;26.178;2023-06-19T02:12:32;17.70;98.20
64226;DHT22;50545;56.064;26.178;2023-06-19T02:14:59;17.70;98.20
64226;DHT22;50545;56.064;26.178;2023-06-19T02:17:27;17.70;98.20
64226;DHT22;50545;56.064;26.178;2023-06-19T02:19:54;17.70;98.20
64226;DHT22;50545;56.064;26.178;2023-06-19T02:22:21;17.70;98.20
64226;DHT22;50545;56.064;26.178;2023-06-19T02:24:48;17.70;98.20
64226;DHT22;50545;56.064;26.178;2023-06-19T02:27:15;17.70;98.20
64226;DHT22;50545;56.064;26.178;2023-06-19T02:29:43;17.60;98.20
64226;DHT22;50545;56.064;26.178;2023-06-19T02:32:10;17.70;98.20
64226;DHT22;50545;56.064;26.178;2023-06-19T02:34:38;17.70;98.20
64226;DHT22;50545;56.064;26.178;2023-06-19T02:37:05;17.70;98.30
64226;DHT22;50545;56.064;26.178;2023-06-19T02:39:33;17.70;98.30
64226;DHT22;50545;56.064;26.178;2023-06-19T02:42:00;17.70;98.30
64226;DHT22;50545;56.064;26.178;2023-06-19T02:44:27;17.70;98.30
64226;DHT22;50545;56.064;26.178;2023-06-19T02:46:55;17.70;98.30
64226;DHT22;50545;56.064;26.178;2023-06-19T02:49:22;17.70;98.30
64226;DHT22;50545;56.064;26.178;2023-06-19T02:51:49;17.70;98.30
64226;DHT22;50545;56.064;26.178;2023-06-19T02:54:16;17.70;98.20
64226;DHT22;50545;56.064;26.178;2023-06-19T02:56:43;17.80;98.20
64226;DHT22;50545;56.064;26.178;2023-06-19T02:59:11;17.80;98.20
64226;DHT22;50545;56.064;26.178;2023-06-19T03:01:38;17.80;98.50
64226;DHT22;50545;56.064;26.178;2023-06-19T03:04:05;17.80;98.20
64226;DHT22;50545;56.064;26.178;2023-06-19T03:06:32;17.80;98.20
64226;DHT22;50545;56.064;26.178;2023-06-19T03:09:06;17.80;98.20
64226;DHT22;50545;56.064;26.178;2023-06-19T03:11:39;17.90;98.20
64226;DHT22;50545;56.064;26.178;2023-06-19T03:14:07;17.90;98.20
64226;DHT22;50545;56.064;26.178;2023-06-19T03:16:36;18.00;98.20
64226;DHT22;50545;56.064;26.178;2023-06-19T03:19:03;18.00;98.10
64226;DHT22;50545;56.064;26.178;2023-06-19T03:21:31;18.00;98.10
64226;DHT22;50545;56.064;26.178;2023-06-19T03:23:58;18.10;98.20
64226;DHT22;50545;56.064;26.178;2023-06-19T03:26:25;18.10;98.10
64226;DHT22;50545;56.064;26.178;2023-06-19T03:28:53;18.10;98.10
64226;DHT22;50545;56.064;26.178;2023-06-19T03:31:20;18.20;98.10
64226;DHT22;50545;56.064;26.178;2023-06-19T03:33:48;18.20;98.20
64226;DHT22;50545;56.064;26.178;2023-06-19T03:36:15;18.30;98.20
64226;DHT22;50545;56.064;26.178;2023-06-19T03:38:42;18.30;98.50
64226;DHT22;50545;56.064;26.178;2023-06-19T03:41:10;18.30;98.30
64226;DHT22;50545;56.064;26.178;2023-06-19T03:43:37;18.40;98.30
64226;DHT22;50545;56.064;26.178;2023-06-19T03:46:05;18.50;98.20
64226;DHT22;50545;56.064;26.178;2023-06-19T03:48:32;18.50;98.30
64226;DHT22;50545;56.064;26.178;2023-06-19T03:50:59;18.50;98.30
64226;DHT22;50545;56.064;26.178;2023-06-19T03:53:27;18.60;98.50
64226;DHT22;50545;56.064;26.178;2023-06-19T03:55:55;18.70;98.70
64226;DHT22;50545;56.064;26.178;2023-06-19T03:58:22;18.70;98.50
64226;DHT22;50545;56.064;26.178;2023-06-19T04:00:50;18.70;98.60
64226;DHT22;50545;56.064;26.178;2023-06-19T04:03:18;18.80;98.70
64226;DHT22;50545;56.064;26.178;2023-06-19T04:05:45;18.90;98.60
64226;DHT22;50545;56.064;26.178;2023-06-19T04:08:13;18.90;98.40
64226;DHT22;50545;56.064;26.178;2023-06-19T04:10:40;19.00;98.20
64226;DHT22;50545;56.064;26.178;2023-06-19T04:13:07;19.10;97.90
64226;DHT22;50545;56.064;26.178;2023-06-19T04:15:34;19.10;97.90
64226;DHT22;50545;56.064;26.178;2023-06-19T04:18:02;19.20;97.80
64226;DHT22;50545;56.064;26.178;2023-06-19T04:20:30;19.20;97.90
64226;DHT22;50545;56.064;26.178;2023-06-19T04:22:57;19.30;97.60
64226;DHT22;50545;56.064;26.178;2023-06-19T04:25:25;19.30;97.10
64226;DHT22;50545;56.064;26.178;2023-06-19T04:27:52;19.30;96.70
64226;DHT22;50545;56.064;26.178;2023-06-19T04:30:19;19.40;96.60
64226;DHT22;50545;56.064;26.178;2023-06-19T04:32:50;19.40;96.70
64226;DHT22;50545;56.064;26.178;2023-06-19T04:35:20;19.50;96.40
64226;DHT22;50545;56.064;26.178;2023-06-19T04:37:47;19.50;96.40
64226;DHT22;50545;56.064;26.178;2023-06-19T04:40:15;19.60;96.30
64226;DHT22;50545;56.064;26.178;2023-06-19T04:42:43;19.60;96.20
64226;DHT22;50545;56.064;26.178;2023-06-19T04:45:10;19.70;95.60
64226;DHT22;50545;56.064;26.178;2023-06-19T04:47:37;19.70;95.80
64226;DHT22;50545;56.064;26.178;2023-06-19T04:50:20;19.80;96.00
64226;DHT22;50545;56.064;26.178;2023-06-19T04:52:47;19.80;96.00
64226;DHT22;50545;56.064;26.178;2023-06-19T04:55:18;19.90;95.90
64226;DHT22;50545;56.064;26.178;2023-06-19T04:57:46;20.00;96.20
64226;DHT22;50545;56.064;26.178;2023-06-19T05:00:13;20.00;96.30
64226;DHT22;50545;56.064;26.178;2023-06-19T05:02:46;20.10;96.20
64226;DHT22;50545;56.064;26.178;2023-06-19T05:05:14;20.10;96.00
64226;DHT22;50545;56.064;26.178;2023-06-19T05:07:42;20.10;95.90
64226;DHT22;50545;56.064;26.178;2023-06-19T05:10:09;20.20;95.70
64226;DHT22;50545;56.064;26.178;2023-06-19T05:12:37;20.20;95.80
64226;DHT22;50545;56.064;26.178;2023-06-19T05:15:05;20.30;95.70
64226;DHT22;50545;56.064;26.178;2023-06-19T05:17:32;20.30;95.40
64226;DHT22;50545;56.064;26.178;2023-06-19T05:20:01;20.40;94.70
64226;DHT22;50545;56.064;26.178;2023-06-19T05:22:29;20.50;95.00
64226;DHT22;50545;56.064;26.178;2023-06-19T05:24:58;20.50;94.30
64226;DHT22;50545;56.064;26.178;2023-06-19T05:27:25;20.60;94.50
64226;DHT22;50545;56.064;26.178;2023-06-19T05:29:52;20.60;94.80
64226;DHT22;50545;56.064;26.178;2023-06-19T05:32:20;20.70;94.50
64226;DHT22;50545;56.064;26.178;2023-06-19T05:34:47;20.80;94.50
64226;DHT22;50545;56.064;26.178;2023-06-19T05:37:15;20.90;94.10
64226;DHT22;50545;56.064;26.178;2023-06-19T05:39:43;20.90;93.60
64226;DHT22;50545;56.064;26.178;2023-06-19T05:42:10;21.00;94.10
64226;DHT22;50545;56.064;26.178;2023-06-19T05:44:37;21.10;93.80
64226;DHT22;50545;56.064;26.178;2023-06-19T05:47:05;21.20;93.50
64226;DHT22;50545;56.064;26.178;2023-06-19T05:49:32;21.30;93.30
64226;DHT22;50545;56.064;26.178;2023-06-19T05:52:00;21.30;93.50
64226;DHT22;50545;56.064;26.178;2023-06-19T05:54:28;21.40;92.80
64226;DHT22;50545;56.064;26.178;2023-06-19T05:56:55;21.50;92.70
64226;DHT22;50545;56.064;26.178;2023-06-19T05:59:22;21.60;92.00
64226;DHT22;50545;56.064;26.178;2023-06-19T06:01:49;21.70;91.70
64226;DHT22;50545;56.064;26.178;2023-06-19T06:04:20;21.80;92.00
64226;DHT22;50545;56.064;26.178;2023-06-19T06:06:49;21.80;91.50
64226;DHT22;50545;56.064;26.178;2023-06-19T06:09:16;21.90;90.90
64226;DHT22;50545;56.064;26.178;2023-06-19T06:11:43;22.00;91.10
64226;DHT22;50545;56.064;26.178;2023-06-19T06:14:11;22.00;91.60
64226;DHT22;50545;56.064;26.178;2023-06-19T06:16:39;22.10;91.00
64226;DHT22;50545;56.064;26.178;2023-06-19T06:19:06;22.20;90.00
64226;DHT22;50545;56.064;26.178;2023-06-19T06:21:34;22.40;90.70
64226;DHT22;50545;56.064;26.178;2023-06-19T06:24:02;22.50;89.90
64226;DHT22;50545;56.064;26.178;2023-06-19T06:26:29;22.60;90.40
64226;DHT22;50545;56.064;26.178;2023-06-19T06:28:57;22.60;90.30
64226;DHT22;50545;56.064;26.178;2023-06-19T06:31:24;22.60;89.50
64226;DHT22;50545;56.064;26.178;2023-06-19T06:33:51;22.60;88.80
64226;DHT22;50545;56.064;26.178;2023-06-19T06:36:19;22.70;90.40
64226;DHT22;50545;56.064;26.178;2023-06-19T06:39:02;22.70;89.30
64226;DHT22;50545;56.064;26.178;2023-06-19T06:41:29;22.80;89.80
64226;DHT22;50545;56.064;26.178;2023-06-19T06:43:57;22.80;87.80
64226;DHT22;50545;56.064;26.178;2023-06-19T06:46:24;22.90;89.00
64226;DHT22;50545;56.064;26.178;2023-06-19T06:48:51;23.00;89.30
64226;DHT22;50545;56.064;26.178;2023-06-19T06:51:19;23.10;87.60
64226;DHT22;50545;56.064;26.178;2023-06-19T06:53:46;23.30;88.30
64226;DHT22;50545;56.064;26.178;2023-06-19T06:56:13;23.40;86.10
64226;DHT22;50545;56.064;26.178;2023-06-19T06:58:40;23.40;87.00
64226;DHT22;50545;56.064;26.178;2023-06-19T07:01:07;23.60;87.00
64226;DHT22;50545;56.064;26.178;2023-06-19T07:03:35;23.70;85.90
64226;DHT22;50545;56.064;26.178;2023-06-19T07:06:02;23.80;85.90
64226;DHT22;50545;56.064;26.178;2023-06-19T07:08:29;23.90;86.40
64226;DHT22;50545;56.064;26.178;2023-06-19T07:10:57;24.10;85.20
64226;DHT22;50545;56.064;26.178;2023-06-19T07:13:25;24.10;85.90
64226;DHT22;50545;56.064;26.178;2023-06-19T07:15:52;24.20;85.10
64226;DHT22;50545;56.064;26.178;2023-06-19T07:18:19;24.20;84.80
64226;DHT22;50545;56.064;26.178;2023-06-19T07:20:47;24.30;83.30
64226;DHT22;50545;56.064;26.178;2023-06-19T07:23:14;24.20;83.10
64226;DHT22;50545;56.064;26.178;2023-06-19T07:25:41;24.20;82.80
64226;DHT22;50545;56.064;26.178;2023-06-19T07:28:08;24.20;83.60
64226;DHT22;50545;56.064;26.178;2023-06-19T07:30:36;24.20;82.60
64226;DHT22;50545;56.064;26.178;2023-06-19T07:33:03;24.20;82.80
64226;DHT22;50545;56.064;26.178;2023-06-19T07:35:30;24.20;80.30
64226;DHT22;50545;56.064;26.178;2023-06-19T07:37:57;24.30;82.00
64226;DHT22;50545;56.064;26.178;2023-06-19T07:40:24;24.40;79.30
64226;DHT22;50545;56.064;26.178;2023-06-19T07:42:52;24.60;77.70
64226;DHT22;50545;56.064;26.178;2023-06-19T07:45:19;24.60;79.70
64226;DHT22;50545;56.064;26.178;2023-06-19T07:47:56;24.60;78.40
64226;DHT22;50545;56.064;26.178;2023-06-19T07:50:24;24.70;81.50
64226;DHT22;50545;56.064;26.178;2023-06-19T07:52:53;24.80;79.80
64226;DHT22;50545;56.064;26.178;2023-06-19T07:55:20;25.00;77.10
64226;DHT22;50545;56.064;26.178;2023-06-19T07:57:48;25.00;77.80
64226;DHT22;50545;56.064;26.178;2023-06-19T08:00:15;25.20;78.30
64226;DHT22;50545;56.064;26.178;2023-06-19T08:02:42;25.40;77.70
64226;DHT22;50545;56.064;26.178;2023-06-19T08:05:10;25.70;78.40
64226;DHT22;50545;56.064;26.178;2023-06-19T08:07:38;25.90;76.10
64226;DHT22;50545;56.064;26.178;2023-06-19T08:10:06;26.10;75.30
64226;DHT22;50545;56.064;26.178;2023-06-19T08:12:43;26.20;76.90
64226;DHT22;50545;56.064;26.178;2023-06-19T08:15:11;26.50;72.60
64226;DHT22;50545;56.064;26.178;2023-06-19T08:17:41;26.60;72.90
64226;DHT22;50545;56.064;26.178;2023-06-19T08:20:09;26.70;70.70
64226;DHT22;50545;56.064;26.178;2023-06-19T08:22:37;26.60;71.10
64226;DHT22;50545;56.064;26.178;2023-06-19T08:25:05;26.60;70.80
64226;DHT22;50545;56.064;26.178;2023-06-19T08:27:32;26.50;72.20
64226;DHT22;50545;56.064;26.178;2023-06-19T08:30:00;26.20;69.70
64226;DHT22;50545;56.064;26.178;2023-06-19T08:32:27;25.90;71.90
64226;DHT22;50545;56.064;26.178;2023-06-19T08:34:54;25.60;75.20
64226;DHT22;50545;56.064;26.178;2023-06-19T08:37:21;25.50;75.10
64226;DHT22;50545;56.064;26.178;2023-06-19T08:39:49;25.50;75.00
64226;DHT22;50545;56.064;26.178;2023-06-19T08:42:16;25.60;77.80
64226;DHT22;50545;56.064;26.178;2023-06-19T08:44:43;25.80;76.10
64226;DHT22;50545;56.064;26.178;2023-06-19T08:47:10;25.90;73.60
64226;DHT22;50545;56.064;26.178;2023-06-19T08:49:38;26.00;74.00
64226;DHT22;50545;56.064;26.178;2023-06-19T08:52:06;26.10;74.50
64226;DHT22;50545;56.064;26.178;2023-06-19T08:54:34;26.20;73.10
64226;DHT22;50545;56.064;26.178;2023-06-19T08:57:11;26.40;73.90
64226;DHT22;50545;56.064;26.178;2023-06-19T08:59:50;26.60;75.50
64226;DHT22;50545;56.064;26.178;2023-06-19T09:02:18;26.80;72.80
64226;DHT22;50545;56.064;26.178;2023-06-19T09:04:45;27.00;72.50
64226;DHT22;50545;56.064;26.178;2023-06-19T09:07:13;27.20;74.10
64226;DHT22;50545;56.064;26.178;2023-06-19T09:09:45;27.40;71.40
64226;DHT22;50545;56.064;26.178;2023-06-19T09:12:14;27.70;73.00
64226;DHT22;50545;56.064;26.178;2023-06-19T09:14:44;27.90;69.80
64226;DHT22;50545;56.064;26.178;2023-06-19T09:17:19;27.90;71.30
64226;DHT22;50545;56.064;26.178;2023-06-19T09:19:51;28.00;68.30
64226;DHT22;50545;56.064;26.178;2023-06-19T09:22:21;28.00;70.30
64226;DHT22;50545;56.064;26.178;2023-06-19T09:24:49;28.00;68.30
64226;DHT22;50545;56.064;26.178;2023-06-19T09:27:18;28.10;69.70
64226;DHT22;50545;56.064;26.178;2023-06-19T09:29:50;28.30;66.60
64226;DHT22;50545;56.064;26.178;2023-06-19T09:34:51;28.40;67.10
64226;DHT22;50545;56.064;26.178;2023-06-19T09:37:28;28.50;67.00
64226;DHT22;50545;56.064;26.178;2023-06-19T09:39:59;28.40;64.50
64226;DHT22;50545;56.064;26.178;2023-06-19T09:42:32;28.20;66.00
64226;DHT22;50545;56.064;26.178;2023-06-19T09:45:01;28.30;67.40
64226;DHT22;50545;56.064;26.178;2023-06-19T09:47:39;28.30;66.20
64226;DHT22;50545;56.064;26.178;2023-06-19T09:50:14;28.40;63.00
64226;DHT22;50545;56.064;26.178;2023-06-19T09:52:42;28.20;66.60
64226;DHT22;50545;56.064;26.178;2023-06-19T09:55:12;28.10;67.60
64226;DHT22;50545;56.064;26.178;2023-06-19T09:57:41;28.00;70.70
64226;DHT22;50545;56.064;26.178;2023-06-19T10:00:10;28.20;67.30
64226;DHT22;50545;56.064;26.178;2023-06-19T10:02:44;28.40;66.20
64226;DHT22;50545;56.064;26.178;2023-06-19T10:05:12;28.50;65.00
64226;DHT22;50545;56.064;26.178;2023-06-19T10:07:43;28.50;64.90
64226;DHT22;50545;56.064;26.178;2023-06-19T10:10:22;28.70;63.10
64226;DHT22;50545;56.064;26.178;2023-06-19T10:12:52;28.90;62.30
64226;DHT22;50545;56.064;26.178;2023-06-19T10:17:52;28.60;62.70
64226;DHT22;50545;56.064;26.178;2023-06-19T10:20:37;28.30;61.40
64226;DHT22;50545;56.064;26.178;2023-06-19T10:23:15;28.30;63.20
64226;DHT22;50545;56.064;26.178;2023-06-19T10:33:27;27.50;69.10
64226;DHT22;50545;56.064;26.178;2023-06-19T10:35:55;27.60;68.00
64226;DHT22;50545;56.064;26.178;2023-06-19T10:38:22;28.00;66.70
64226;DHT22;50545;56.064;26.178;2023-06-19T10:40:49;28.20;69.00
64226;DHT22;50545;56.064;26.178;2023-06-19T10:43:23;28.50;66.20
64226;DHT22;50545;56.064;26.178;2023-06-19T10:45:52;28.90;63.20
64226;DHT22;50545;56.064;26.178;2023-06-19T10:48:21;29.20;63.30
64226;DHT22;50545;56.064;26.178;2023-06-19T10:50:50;29.60;59.70
64226;DHT22;50545;56.064;26.178;2023-06-19T10:53:31;29.90;61.10
64226;DHT22;50545;56.064;26.178;2023-06-19T10:56:00;30.00;58.20
64226;DHT22;50545;56.064;26.178;2023-06-19T10:58:29;30.20;56.10
64226;DHT22;50545;56.064;26.178;2023-06-19T11:00:56;30.10;56.30
64226;DHT22;50545;56.064;26.178;2023-06-19T11:03:24;30.00;57.20
64226;DHT22;50545;56.064;26.178;2023-06-19T11:05:51;29.90;57.00
64226;DHT22;50545;56.064;26.178;2023-06-19T11:08:20;29.90;57.50
64226;DHT22;50545;56.064;26.178;2023-06-19T11:10:48;29.90;58.40
64226;DHT22;50545;56.064;26.178;2023-06-19T11:13:20;30.10;58.20
64226;DHT22;50545;56.064;26.178;2023-06-19T11:15:48;30.20;57.90
64226;DHT22;50545;56.064;26.178;2023-06-19T11:18:19;30.30;57.10
64226;DHT22;50545;56.064;26.178;2023-06-19T11:20:51;30.20;55.90
64226;DHT22;50545;56.064;26.178;2023-06-19T11:23:31;30.20;58.00
64226;DHT22;50545;56.064;26.178;2023-06-19T11:26:05;30.20;57.30
64226;DHT22;50545;56.064;26.178;2023-06-19T11:28:32;30.30;57.00
64226;DHT22;50545;56.064;26.178;2023-06-19T11:31:02;30.40;56.00
64226;DHT22;50545;56.064;26.178;2023-06-19T11:33:30;30.50;55.80
64226;DHT22;50545;56.064;26.178;2023-06-19T11:36:00;30.60;54.10
64226;DHT22;50545;56.064;26.178;2023-06-19T11:38:28;30.60;55.20
64226;DHT22;50545;56.064;26.178;2023-06-19T11:40:57;30.70;55.80
64226;DHT22;50545;56.064;26.178;2023-06-19T11:43:30;30.80;54.80
64226;DHT22;50545;56.064;26.178;2023-06-19T11:46:05;30.80;54.50
64226;DHT22;50545;56.064;26.178;2023-06-19T11:48:35;30.70;54.00
64226;DHT22;50545;56.064;26.178;2023-06-19T11:51:03;30.70;53.70
64226;DHT22;50545;56.064;26.178;2023-06-19T11:53:30;30.70;54.40
64226;DHT22;50545;56.064;26.178;2023-06-19T11:55:58;30.90;56.00
64226;DHT22;50545;56.064;26.178;2023-06-19T11:58:25;31.00;55.30
64226;DHT22;50545;56.064;26.178;2023-06-19T12:00:53;30.80;54.70
64226;DHT22;50545;56.064;26.178;2023-06-19T12:03:20;30.50;57.00
64226;DHT22;50545;56.064;26.178;2023-06-19T12:05:48;30.40;57.00
64226;DHT22;50545;56.064;26.178;2023-06-19T12:08:15;30.40;57.30
64226;DHT22;50545;56.064;26.178;2023-06-19T12:10:43;30.40;56.30
64226;DHT22;50545;56.064;26.178;2023-06-19T12:13:10;30.30;56.60
64226;DHT22;50545;56.064;26.178;2023-06-19T12:15:37;30.10;56.90
64226;DHT22;50545;56.064;26.178;2023-06-19T12:18:04;29.80;56.90
64226;DHT22;50545;56.064;26.178;2023-06-19T12:20:34;29.60;57.80
64226;DHT22;50545;56.064;26.178;2023-06-19T12:23:01;29.40;58.50
64226;DHT22;50545;56.064;26.178;2023-06-19T12:25:28;29.20;58.40
64226;DHT22;50545;56.064;26.178;2023-06-19T12:27:56;28.90;59.00
64226;DHT22;50545;56.064;26.178;2023-06-19T12:30:23;28.60;60.60
64226;DHT22;50545;56.064;26.178;2023-06-19T12:32:51;28.30;60.30
64226;DHT22;50545;56.064;26.178;2023-06-19T12:35:18;27.90;61.50
64226;DHT22;50545;56.064;26.178;2023-06-19T12:37:46;27.50;62.30
64226;DHT22;50545;56.064;26.178;2023-06-19T12:40:14;27.30;63.20
64226;DHT22;50545;56.064;26.178;2023-06-19T12:42:41;27.10;64.80
64226;DHT22;50545;56.064;26.178;2023-06-19T12:45:10;26.90;65.80
64226;DHT22;50545;56.064;26.178;2023-06-19T12:47:38;26.70;66.40
64226;DHT22;50545;56.064;26.178;2023-06-19T12:50:06;26.60;67.30
64226;DHT22;50545;56.064;26.178;2023-06-19T12:52:33;26.40;67.60
64226;DHT22;50545;56.064;26.178;2023-06-19T12:55:00;26.30;67.90
64226;DHT22;50545;56.064;26.178;2023-06-19T12:57:28;26.10;69.20
64226;DHT22;50545;56.064;26.178;2023-06-19T12:59:55;25.90;68.80
64226;DHT22;50545;56.064;26.178;2023-06-19T13:02:22;25.80;69.10
64226;DHT22;50545;56.064;26.178;2023-06-19T13:04:50;25.70;69.50
64226;DHT22;50545;56.064;26.178;2023-06-19T13:07:17;25.60;69.80
64226;DHT22;50545;56.064;26.178;2023-06-19T13:09:44;25.50;71.30
64226;DHT22;50545;56.064;26.178;2023-06-19T13:12:11;25.40;71.90
64226;DHT22;50545;56.064;26.178;2023-06-19T13:14:38;25.30;72.20
64226;DHT22;50545;56.064;26.178;2023-06-19T13:17:06;25.20;71.70
64226;DHT22;50545;56.064;26.178;2023-06-19T13:19:34;25.10;72.60
64226;DHT22;50545;56.064;26.178;2023-06-19T13:22:01;25.00;73.20
64226;DHT22;50545;56.064;26.178;2023-06-19T13:24:28;24.90;72.10
64226;DHT22;50545;56.064;26.178;2023-06-19T13:26:56;24.60;71.80
64226;DHT22;50545;56.064;26.178;2023-06-19T13:29:23;24.50;71.60
64226;DHT22;50545;56.064;26.178;2023-06-19T13:31:50;24.30;72.60
64226;DHT22;50545;56.064;26.178;2023-06-19T13:34:17;24.20;73.30
64226;DHT22;50545;56.064;26.178;2023-06-19T13:36:45;24.00;74.10
64226;DHT22;50545;56.064;26.178;2023-06-19T13:39:14;24.00;74.10
64226;DHT22;50545;56.064;26.178;2023-06-19T13:41:42;23.90;74.80
64226;DHT22;50545;56.064;26.178;2023-06-19T13:44:09;23.90;75.70
64226;DHT22;50545;56.064;26.178;2023-06-19T13:46:37;23.80;75.60
64226;DHT22;50545;56.064;26.178;2023-06-19T13:49:05;23.70;76.90
64226;DHT22;50545;56.064;26.178;2023-06-19T13:51:32;23.60;77.60
64226;DHT22;50545;56.064;26.178;2023-06-19T13:53:59;23.50;78.00
64226;DHT22;50545;56.064;26.178;2023-06-19T13:56:29;23.40;78.60
64226;DHT22;50545;56.064;26.178;2023-06-19T13:58:58;23.40;79.50
64226;DHT22;50545;56.064;26.178;2023-06-19T14:01:26;23.20;79.70
64226;DHT22;50545;56.064;26.178;2023-06-19T14:03:53;23.20;81.00
64226;DHT22;50545;56.064;26.178;2023-06-19T14:06:20;23.10;81.50
64226;DHT22;50545;56.064;26.178;2023-06-19T14:08:48;23.00;82.20
64226;DHT22;50545;56.064;26.178;2023-06-19T14:11:15;23.00;82.40
64226;DHT22;50545;56.064;26.178;2023-06-19T14:13:43;22.90;82.50
64226;DHT22;50545;56.064;26.178;2023-06-19T14:16:10;22.90;83.20
64226;DHT22;50545;56.064;26.178;2023-06-19T14:18:37;22.80;84.00
64226;DHT22;50545;56.064;26.178;2023-06-19T14:21:05;22.80;86.90
64226;DHT22;50545;56.064;26.178;2023-06-19T14:23:32;22.60;87.50
64226;DHT22;50545;56.064;26.178;2023-06-19T14:26:05;22.40;87.80
64226;DHT22;50545;56.064;26.178;2023-06-19T14:28:33;22.30;90.00
64226;DHT22;50545;56.064;26.178;2023-06-19T14:31:00;22.20;90.20
64226;DHT22;50545;56.064;26.178;2023-06-19T14:33:27;22.10;90.50
64226;DHT22;50545;56.064;26.178;2023-06-19T14:35:54;22.00;91.00
64226;DHT22;50545;56.064;26.178;2023-06-19T14:38:22;21.90;91.30
64226;DHT22;50545;56.064;26.178;2023-06-19T14:40:51;21.80;91.60
64226;DHT22;50545;56.064;26.178;2023-06-19T14:43:19;21.80;91.70
64226;DHT22;50545;56.064;26.178;2023-06-19T14:45:46;21.70;91.90
64226;DHT22;50545;56.064;26.178;2023-06-19T14:48:13;21.70;92.20
64226;DHT22;50545;56.064;26.178;2023-06-19T14:50:42;21.60;92.70
64226;DHT22;50545;56.064;26.178;2023-06-19T14:53:10;21.60;93.00
64226;DHT22;50545;56.064;26.178;2023-06-19T14:55:37;21.50;93.60
64226;DHT22;50545;56.064;26.178;2023-06-19T14:58:10;21.40;94.00
64226;DHT22;50545;56.064;26.178;2023-06-19T15:00:37;21.30;95.20
64226;DHT22;50545;56.064;26.178;2023-06-19T15:03:05;21.10;95.40
64226;DHT22;50545;56.064;26.178;2023-06-19T15:05:33;21.00;95.70
64226;DHT22;50545;56.064;26.178;2023-06-19T15:08:03;20.80;95.70
64226;DHT22;50545;56.064;26.178;2023-06-19T15:10:32;20.80;96.00
64226;DHT22;50545;56.064;26.178;2023-06-19T15:13:01;20.70;96.50
64226;DHT22;50545;56.064;26.178;2023-06-19T15:15:28;20.60;96.80
64226;DHT22;50545;56.064;26.178;2023-06-19T15:17:56;20.60;97.20
64226;DHT22;50545;56.064;26.178;2023-06-19T15:20:24;20.60;97.90
64226;DHT22;50545;56.064;26.178;2023-06-19T15:22:52;20.50;97.80
64226;DHT22;50545;56.064;26.178;2023-06-19T15:25:20;20.50;97.90
64226;DHT22;50545;56.064;26.178;2023-06-19T15:27:47;20.40;98.60
64226;DHT22;50545;56.064;26.178;2023-06-19T15:30:14;20.40;99.00
64226;DHT22;50545;56.064;26.178;2023-06-19T15:32:41;20.30;98.80
64226;DHT22;50545;56.064;26.178;2023-06-19T15:35:09;20.30;99.00